メインページ
METAR-TAF:

METAR-TAF

空港 :

グラン・カナリア空港

グラン・カナリア島, スペイン

緯度: 27-56N, 経度: 015-23W, 海抜: 23m

現時点の気象観測

当レポートは19分前の02:00(UTC)に作成
北/北西の風 9kt
気温 16°C
湿度 82%
気圧 1024 hPa
視程10km以上
高度2500ftの雲はほとんどない
高度4500ftの雲は散在している

METAR: GCLP 210200Z 34009KT 9999 FEW025 SCT045 16/13 Q1024 NOSIG

時間: 02:19 (02:19 UTC)

予報

当レポートは6時間19分前の20:00(UTC)に作成
予報は20日の 21時(UTC)から 21日の 21時(UTC)まで有効
の風 12kt
視程10km以上
高度3000ftの千切れ雲あり
確率 40% :
20日の 21時(UTC)から 21日の 12時(UTC)まで一時的に
霧雨

TAF: GCLP 202000Z 2021/2121 36012KT 9999 BKN030 TX21/2114Z TN15/2106Z PROB40 TEMPO 2021/2112 DZ

4,000以上の空港の気象観測と天気予報(METAR報とTAF報)

利用可能な観測所は地図上に黄色い丸と赤い丸で示す。

丸の上にカーソルを重ねると観測所名を参照できる。

次にクリックすると気象観測と天気予報を参照できる。

マップの切り替え:黒色「×」印の緑ボタンをクリックして拡大、「-」印の緑ボタンをクリックして縮小、緑色の三角印をクリックして隣りの地図に切り替え


METAR-TAF: